sensor_id;sensor_type;location;lat;lon;timestamp;P1;durP1;ratioP1;P2;durP2;ratioP2
49241;SDS011;35079;52.704;13.814;2023-06-10T00:01:26;8.52;;;4.20;;
49241;SDS011;35079;52.704;13.814;2023-06-10T00:03:52;9.27;;;4.78;;
49241;SDS011;35079;52.704;13.814;2023-06-10T00:06:19;11.40;;;4.60;;
49241;SDS011;35079;52.704;13.814;2023-06-10T00:08:46;12.93;;;4.60;;
49241;SDS011;35079;52.704;13.814;2023-06-10T00:11:12;10.43;;;4.30;;
49241;SDS011;35079;52.704;13.814;2023-06-10T00:13:38;8.55;;;4.32;;
49241;SDS011;35079;52.704;13.814;2023-06-10T00:16:05;8.20;;;4.30;;
49241;SDS011;35079;52.704;13.814;2023-06-10T00:18:30;13.88;;;5.13;;
49241;SDS011;35079;52.704;13.814;2023-06-10T00:20:57;13.32;;;4.28;;
49241;SDS011;35079;52.704;13.814;2023-06-10T00:23:28;10.98;;;4.10;;
49241;SDS011;35079;52.704;13.814;2023-06-10T00:25:56;8.68;;;4.20;;
49241;SDS011;35079;52.704;13.814;2023-06-10T00:28:23;10.50;;;4.38;;
49241;SDS011;35079;52.704;13.814;2023-06-10T00:30:48;13.45;;;4.53;;
49241;SDS011;35079;52.704;13.814;2023-06-10T00:33:14;12.93;;;4.50;;
49241;SDS011;35079;52.704;13.814;2023-06-10T00:35:40;11.93;;;4.50;;
49241;SDS011;35079;52.704;13.814;2023-06-10T00:38:05;10.45;;;4.15;;
49241;SDS011;35079;52.704;13.814;2023-06-10T00:40:33;10.60;;;4.63;;
49241;SDS011;35079;52.704;13.814;2023-06-10T00:43:03;9.30;;;4.60;;
49241;SDS011;35079;52.704;13.814;2023-06-10T00:45:29;11.15;;;4.50;;
49241;SDS011;35079;52.704;13.814;2023-06-10T00:47:55;10.45;;;4.75;;
49241;SDS011;35079;52.704;13.814;2023-06-10T00:50:21;13.43;;;4.40;;
49241;SDS011;35079;52.704;13.814;2023-06-10T00:52:46;14.77;;;5.13;;
49241;SDS011;35079;52.704;13.814;2023-06-10T00:55:13;10.52;;;4.53;;
49241;SDS011;35079;52.704;13.814;2023-06-10T00:57:41;11.75;;;4.80;;
49241;SDS011;35079;52.704;13.814;2023-06-10T01:00:10;15.32;;;5.30;;
49241;SDS011;35079;52.704;13.814;2023-06-10T01:02:36;10.20;;;4.40;;
49241;SDS011;35079;52.704;13.814;2023-06-10T01:05:01;11.52;;;4.40;;
49241;SDS011;35079;52.704;13.814;2023-06-10T01:07:31;14.95;;;4.78;;
49241;SDS011;35079;52.704;13.814;2023-06-10T01:10:06;13.60;;;4.85;;
49241;SDS011;35079;52.704;13.814;2023-06-10T01:12:58;13.88;;;5.13;;
49241;SDS011;35079;52.704;13.814;2023-06-10T01:15:33;12.82;;;4.47;;
49241;SDS011;35079;52.704;13.814;2023-06-10T01:18:01;15.60;;;5.40;;
49241;SDS011;35079;52.704;13.814;2023-06-10T01:20:29;10.10;;;4.63;;
49241;SDS011;35079;52.704;13.814;2023-06-10T01:22:57;15.70;;;5.78;;
49241;SDS011;35079;52.704;13.814;2023-06-10T01:25:24;15.02;;;5.07;;
49241;SDS011;35079;52.704;13.814;2023-06-10T01:28:13;14.75;;;5.32;;
49241;SDS011;35079;52.704;13.814;2023-06-10T01:33:46;11.95;;;4.60;;
49241;SDS011;35079;52.704;13.814;2023-06-10T01:36:15;12.05;;;4.78;;
49241;SDS011;35079;52.704;13.814;2023-06-10T01:38:43;12.65;;;5.30;;
49241;SDS011;35079;52.704;13.814;2023-06-10T01:41:13;9.95;;;4.95;;
49241;SDS011;35079;52.704;13.814;2023-06-10T01:43:42;15.68;;;4.82;;
49241;SDS011;35079;52.704;13.814;2023-06-10T01:46:08;10.05;;;4.90;;
49241;SDS011;35079;52.704;13.814;2023-06-10T01:48:34;11.02;;;4.50;;
49241;SDS011;35079;52.704;13.814;2023-06-10T01:51:00;14.10;;;4.88;;
49241;SDS011;35079;52.704;13.814;2023-06-10T01:53:26;13.23;;;4.90;;
49241;SDS011;35079;52.704;13.814;2023-06-10T01:55:51;13.25;;;4.60;;
49241;SDS011;35079;52.704;13.814;2023-06-10T01:58:17;13.10;;;5.65;;
49241;SDS011;35079;52.704;13.814;2023-06-10T02:00:42;15.18;;;5.45;;
49241;SDS011;35079;52.704;13.814;2023-06-10T02:03:08;9.52;;;5.00;;
49241;SDS011;35079;52.704;13.814;2023-06-10T02:05:34;10.35;;;5.00;;
49241;SDS011;35079;52.704;13.814;2023-06-10T02:07:59;12.40;;;5.22;;
49241;SDS011;35079;52.704;13.814;2023-06-10T02:10:25;10.98;;;4.70;;
49241;SDS011;35079;52.704;13.814;2023-06-10T02:12:51;12.32;;;4.90;;
49241;SDS011;35079;52.704;13.814;2023-06-10T02:15:17;12.70;;;4.50;;
49241;SDS011;35079;52.704;13.814;2023-06-10T02:17:42;13.15;;;5.00;;
49241;SDS011;35079;52.704;13.814;2023-06-10T02:20:09;10.40;;;4.68;;
49241;SDS011;35079;52.704;13.814;2023-06-10T02:22:36;15.85;;;5.10;;
49241;SDS011;35079;52.704;13.814;2023-06-10T02:25:02;12.82;;;5.78;;
49241;SDS011;35079;52.704;13.814;2023-06-10T02:27:28;12.57;;;4.85;;
49241;SDS011;35079;52.704;13.814;2023-06-10T02:29:55;13.60;;;5.18;;
49241;SDS011;35079;52.704;13.814;2023-06-10T02:32:21;9.65;;;4.47;;
49241;SDS011;35079;52.704;13.814;2023-06-10T02:34:47;15.23;;;5.07;;
49241;SDS011;35079;52.704;13.814;2023-06-10T02:37:14;12.43;;;4.78;;
49241;SDS011;35079;52.704;13.814;2023-06-10T02:39:40;15.75;;;5.55;;
49241;SDS011;35079;52.704;13.814;2023-06-10T02:42:06;14.75;;;4.97;;
49241;SDS011;35079;52.704;13.814;2023-06-10T02:44:32;14.55;;;5.47;;
49241;SDS011;35079;52.704;13.814;2023-06-10T02:46:58;12.52;;;5.25;;
49241;SDS011;35079;52.704;13.814;2023-06-10T02:49:23;10.23;;;4.97;;
49241;SDS011;35079;52.704;13.814;2023-06-10T02:51:52;13.70;;;4.70;;
49241;SDS011;35079;52.704;13.814;2023-06-10T02:54:19;12.05;;;4.82;;
49241;SDS011;35079;52.704;13.814;2023-06-10T02:56:45;12.55;;;5.45;;
49241;SDS011;35079;52.704;13.814;2023-06-10T02:59:12;12.80;;;5.53;;
49241;SDS011;35079;52.704;13.814;2023-06-10T03:01:38;13.45;;;4.90;;
49241;SDS011;35079;52.704;13.814;2023-06-10T03:04:04;13.70;;;5.22;;
49241;SDS011;35079;52.704;13.814;2023-06-10T03:06:31;16.55;;;5.65;;
49241;SDS011;35079;52.704;13.814;2023-06-10T03:08:58;14.50;;;5.47;;
49241;SDS011;35079;52.704;13.814;2023-06-10T03:11:24;13.77;;;5.60;;
49241;SDS011;35079;52.704;13.814;2023-06-10T03:13:50;9.77;;;5.15;;
49241;SDS011;35079;52.704;13.814;2023-06-10T03:16:17;11.95;;;5.53;;
49241;SDS011;35079;52.704;13.814;2023-06-10T03:18:43;9.88;;;5.32;;
49241;SDS011;35079;52.704;13.814;2023-06-10T03:21:09;16.65;;;6.22;;
49241;SDS011;35079;52.704;13.814;2023-06-10T03:23:35;14.88;;;5.25;;
49241;SDS011;35079;52.704;13.814;2023-06-10T03:26:00;10.23;;;5.22;;
49241;SDS011;35079;52.704;13.814;2023-06-10T03:28:27;9.45;;;4.53;;
49241;SDS011;35079;52.704;13.814;2023-06-10T03:30:52;11.90;;;5.43;;
49241;SDS011;35079;52.704;13.814;2023-06-10T03:33:18;14.43;;;5.57;;
49241;SDS011;35079;52.704;13.814;2023-06-10T03:35:44;12.07;;;5.25;;
49241;SDS011;35079;52.704;13.814;2023-06-10T03:38:09;12.98;;;5.95;;
49241;SDS011;35079;52.704;13.814;2023-06-10T03:40:36;12.65;;;5.70;;
49241;SDS011;35079;52.704;13.814;2023-06-10T03:43:01;14.45;;;5.72;;
49241;SDS011;35079;52.704;13.814;2023-06-10T03:45:27;13.00;;;5.65;;
49241;SDS011;35079;52.704;13.814;2023-06-10T03:47:55;10.48;;;4.93;;
49241;SDS011;35079;52.704;13.814;2023-06-10T03:50:21;13.35;;;5.57;;
49241;SDS011;35079;52.704;13.814;2023-06-10T03:52:48;10.50;;;5.15;;
49241;SDS011;35079;52.704;13.814;2023-06-10T03:55:14;8.38;;;5.10;;
49241;SDS011;35079;52.704;13.814;2023-06-10T03:57:41;9.98;;;5.03;;
49241;SDS011;35079;52.704;13.814;2023-06-10T04:00:07;9.85;;;5.55;;
49241;SDS011;35079;52.704;13.814;2023-06-10T04:02:36;10.35;;;5.22;;
49241;SDS011;35079;52.704;13.814;2023-06-10T04:05:02;13.52;;;5.28;;
49241;SDS011;35079;52.704;13.814;2023-06-10T04:07:28;14.38;;;5.47;;
49241;SDS011;35079;52.704;13.814;2023-06-10T04:09:55;13.02;;;5.90;;
49241;SDS011;35079;52.704;13.814;2023-06-10T04:12:21;8.43;;;5.60;;
49241;SDS011;35079;52.704;13.814;2023-06-10T04:14:46;13.70;;;5.53;;
49241;SDS011;35079;52.704;13.814;2023-06-10T04:17:12;12.48;;;5.60;;
49241;SDS011;35079;52.704;13.814;2023-06-10T04:19:38;16.13;;;5.72;;
49241;SDS011;35079;52.704;13.814;2023-06-10T04:22:03;10.55;;;5.28;;
49241;SDS011;35079;52.704;13.814;2023-06-10T04:24:30;11.15;;;5.40;;
49241;SDS011;35079;52.704;13.814;2023-06-10T04:26:55;12.45;;;5.57;;
49241;SDS011;35079;52.704;13.814;2023-06-10T04:29:21;8.98;;;4.72;;
49241;SDS011;35079;52.704;13.814;2023-06-10T04:31:47;9.88;;;5.50;;
49241;SDS011;35079;52.704;13.814;2023-06-10T04:34:13;10.25;;;5.45;;
49241;SDS011;35079;52.704;13.814;2023-06-10T04:36:39;12.38;;;5.30;;
49241;SDS011;35079;52.704;13.814;2023-06-10T04:39:05;12.35;;;5.82;;
49241;SDS011;35079;52.704;13.814;2023-06-10T04:41:30;10.68;;;5.43;;
49241;SDS011;35079;52.704;13.814;2023-06-10T04:43:56;8.20;;;4.93;;
49241;SDS011;35079;52.704;13.814;2023-06-10T04:46:22;11.88;;;5.30;;
49241;SDS011;35079;52.704;13.814;2023-06-10T04:48:49;10.70;;;5.55;;
49241;SDS011;35079;52.704;13.814;2023-06-10T04:51:14;12.45;;;5.50;;
49241;SDS011;35079;52.704;13.814;2023-06-10T04:53:40;11.65;;;5.15;;
49241;SDS011;35079;52.704;13.814;2023-06-10T04:56:06;10.25;;;5.68;;
49241;SDS011;35079;52.704;13.814;2023-06-10T04:58:32;12.77;;;5.88;;
49241;SDS011;35079;52.704;13.814;2023-06-10T05:00:58;9.82;;;5.30;;
49241;SDS011;35079;52.704;13.814;2023-06-10T05:03:24;11.80;;;5.35;;
49241;SDS011;35079;52.704;13.814;2023-06-10T05:05:50;11.02;;;5.40;;
49241;SDS011;35079;52.704;13.814;2023-06-10T05:08:16;11.23;;;5.38;;
49241;SDS011;35079;52.704;13.814;2023-06-10T05:10:41;10.63;;;5.68;;
49241;SDS011;35079;52.704;13.814;2023-06-10T05:13:07;10.88;;;5.18;;
49241;SDS011;35079;52.704;13.814;2023-06-10T05:15:32;11.27;;;4.70;;
49241;SDS011;35079;52.704;13.814;2023-06-10T05:17:58;11.13;;;5.70;;
49241;SDS011;35079;52.704;13.814;2023-06-10T05:20:24;13.20;;;5.65;;
49241;SDS011;35079;52.704;13.814;2023-06-10T05:22:50;10.52;;;5.47;;
49241;SDS011;35079;52.704;13.814;2023-06-10T05:25:17;12.73;;;5.22;;
49241;SDS011;35079;52.704;13.814;2023-06-10T05:27:42;12.50;;;5.30;;
49241;SDS011;35079;52.704;13.814;2023-06-10T05:30:09;9.40;;;5.50;;
49241;SDS011;35079;52.704;13.814;2023-06-10T05:32:35;12.40;;;5.10;;
49241;SDS011;35079;52.704;13.814;2023-06-10T05:35:01;11.73;;;5.30;;
49241;SDS011;35079;52.704;13.814;2023-06-10T05:37:28;8.57;;;4.70;;
49241;SDS011;35079;52.704;13.814;2023-06-10T05:39:56;11.25;;;5.57;;
49241;SDS011;35079;52.704;13.814;2023-06-10T05:42:22;11.02;;;5.30;;
49241;SDS011;35079;52.704;13.814;2023-06-10T05:44:47;12.82;;;5.95;;
49241;SDS011;35079;52.704;13.814;2023-06-10T05:47:13;13.63;;;5.72;;
49241;SDS011;35079;52.704;13.814;2023-06-10T05:49:38;10.85;;;4.85;;
49241;SDS011;35079;52.704;13.814;2023-06-10T05:52:04;11.48;;;5.28;;
49241;SDS011;35079;52.704;13.814;2023-06-10T05:54:30;10.45;;;5.53;;
49241;SDS011;35079;52.704;13.814;2023-06-10T05:56:56;11.35;;;6.15;;
49241;SDS011;35079;52.704;13.814;2023-06-10T05:59:21;12.82;;;5.60;;
49241;SDS011;35079;52.704;13.814;2023-06-10T06:01:48;9.05;;;4.93;;
49241;SDS011;35079;52.704;13.814;2023-06-10T06:04:15;11.27;;;5.32;;
49241;SDS011;35079;52.704;13.814;2023-06-10T06:06:41;12.10;;;5.63;;
49241;SDS011;35079;52.704;13.814;2023-06-10T06:09:06;10.13;;;5.53;;
49241;SDS011;35079;52.704;13.814;2023-06-10T06:11:33;14.93;;;5.80;;
49241;SDS011;35079;52.704;13.814;2023-06-10T06:14:00;12.45;;;5.75;;
49241;SDS011;35079;52.704;13.814;2023-06-10T06:16:25;10.93;;;5.25;;
49241;SDS011;35079;52.704;13.814;2023-06-10T06:18:51;14.02;;;5.93;;
49241;SDS011;35079;52.704;13.814;2023-06-10T06:21:16;9.88;;;5.03;;
49241;SDS011;35079;52.704;13.814;2023-06-10T06:23:42;11.85;;;5.65;;
49241;SDS011;35079;52.704;13.814;2023-06-10T06:26:08;10.43;;;4.95;;
49241;SDS011;35079;52.704;13.814;2023-06-10T06:28:33;11.15;;;5.10;;
49241;SDS011;35079;52.704;13.814;2023-06-10T06:30:59;8.55;;;4.80;;
49241;SDS011;35079;52.704;13.814;2023-06-10T06:33:25;9.57;;;4.78;;
49241;SDS011;35079;52.704;13.814;2023-06-10T06:35:51;9.82;;;4.57;;
49241;SDS011;35079;52.704;13.814;2023-06-10T06:38:17;10.27;;;5.13;;
49241;SDS011;35079;52.704;13.814;2023-06-10T06:40:42;7.25;;;4.75;;
49241;SDS011;35079;52.704;13.814;2023-06-10T06:43:08;12.63;;;5.50;;
49241;SDS011;35079;52.704;13.814;2023-06-10T06:45:33;12.00;;;5.22;;
49241;SDS011;35079;52.704;13.814;2023-06-10T06:47:59;11.20;;;5.00;;
49241;SDS011;35079;52.704;13.814;2023-06-10T06:50:25;11.48;;;5.28;;
49241;SDS011;35079;52.704;13.814;2023-06-10T06:52:50;8.40;;;4.80;;
49241;SDS011;35079;52.704;13.814;2023-06-10T06:55:16;9.10;;;5.15;;
49241;SDS011;35079;52.704;13.814;2023-06-10T06:57:42;8.27;;;4.70;;
49241;SDS011;35079;52.704;13.814;2023-06-10T07:00:08;10.73;;;5.00;;
49241;SDS011;35079;52.704;13.814;2023-06-10T07:02:34;8.30;;;4.80;;
49241;SDS011;35079;52.704;13.814;2023-06-10T07:05:00;11.20;;;5.57;;
49241;SDS011;35079;52.704;13.814;2023-06-10T07:07:26;9.45;;;5.35;;
49241;SDS011;35079;52.704;13.814;2023-06-10T07:09:52;7.40;;;4.53;;
49241;SDS011;35079;52.704;13.814;2023-06-10T07:12:17;12.65;;;5.20;;
49241;SDS011;35079;52.704;13.814;2023-06-10T07:14:43;12.52;;;5.72;;
49241;SDS011;35079;52.704;13.814;2023-06-10T07:17:09;7.93;;;4.68;;
49241;SDS011;35079;52.704;13.814;2023-06-10T07:19:35;8.68;;;4.80;;
49241;SDS011;35079;52.704;13.814;2023-06-10T07:22:00;13.30;;;5.25;;
49241;SDS011;35079;52.704;13.814;2023-06-10T07:24:26;8.02;;;5.35;;
49241;SDS011;35079;52.704;13.814;2023-06-10T07:26:52;10.13;;;5.15;;
49241;SDS011;35079;52.704;13.814;2023-06-10T07:29:17;11.48;;;5.72;;
49241;SDS011;35079;52.704;13.814;2023-06-10T07:31:43;11.13;;;4.95;;
49241;SDS011;35079;52.704;13.814;2023-06-10T07:34:09;8.23;;;4.75;;
49241;SDS011;35079;52.704;13.814;2023-06-10T07:36:35;7.10;;;4.93;;
49241;SDS011;35079;52.704;13.814;2023-06-10T07:39:01;8.05;;;4.80;;
49241;SDS011;35079;52.704;13.814;2023-06-10T07:41:27;11.55;;;6.65;;
49241;SDS011;35079;52.704;13.814;2023-06-10T07:43:53;9.88;;;5.88;;
49241;SDS011;35079;52.704;13.814;2023-06-10T07:46:23;8.40;;;5.53;;
49241;SDS011;35079;52.704;13.814;2023-06-10T07:48:49;8.60;;;4.90;;
49241;SDS011;35079;52.704;13.814;2023-06-10T07:51:16;8.20;;;4.85;;
49241;SDS011;35079;52.704;13.814;2023-06-10T07:53:42;8.32;;;4.93;;
49241;SDS011;35079;52.704;13.814;2023-06-10T07:56:07;9.02;;;4.90;;
49241;SDS011;35079;52.704;13.814;2023-06-10T07:58:33;9.10;;;5.20;;
49241;SDS011;35079;52.704;13.814;2023-06-10T08:00:59;11.38;;;5.22;;
49241;SDS011;35079;52.704;13.814;2023-06-10T08:03:24;8.80;;;5.13;;
49241;SDS011;35079;52.704;13.814;2023-06-10T08:05:50;15.65;;;5.75;;
49241;SDS011;35079;52.704;13.814;2023-06-10T08:08:16;9.55;;;5.32;;
49241;SDS011;35079;52.704;13.814;2023-06-10T08:10:41;10.43;;;5.32;;
49241;SDS011;35079;52.704;13.814;2023-06-10T08:13:07;10.23;;;5.00;;
49241;SDS011;35079;52.704;13.814;2023-06-10T08:15:33;9.23;;;5.00;;
49241;SDS011;35079;52.704;13.814;2023-06-10T08:17:59;10.75;;;5.00;;
49241;SDS011;35079;52.704;13.814;2023-06-10T08:20:25;11.10;;;5.95;;
49241;SDS011;35079;52.704;13.814;2023-06-10T08:22:50;8.50;;;5.00;;
49241;SDS011;35079;52.704;13.814;2023-06-10T08:25:16;9.30;;;5.25;;
49241;SDS011;35079;52.704;13.814;2023-06-10T08:27:42;12.95;;;5.20;;
49241;SDS011;35079;52.704;13.814;2023-06-10T08:30:07;11.77;;;5.90;;
49241;SDS011;35079;52.704;13.814;2023-06-10T08:32:35;8.05;;;4.78;;
49241;SDS011;35079;52.704;13.814;2023-06-10T08:35:01;9.52;;;5.72;;
49241;SDS011;35079;52.704;13.814;2023-06-10T08:37:27;10.70;;;5.20;;
49241;SDS011;35079;52.704;13.814;2023-06-10T08:39:53;11.00;;;5.38;;
49241;SDS011;35079;52.704;13.814;2023-06-10T08:44:51;19.60;;;6.78;;
49241;SDS011;35079;52.704;13.814;2023-06-10T08:47:20;7.93;;;5.65;;
49241;SDS011;35079;52.704;13.814;2023-06-10T08:49:48;9.73;;;5.65;;
49241;SDS011;35079;52.704;13.814;2023-06-10T08:52:17;11.68;;;6.00;;
49241;SDS011;35079;52.704;13.814;2023-06-10T08:57:25;11.85;;;5.97;;
49241;SDS011;35079;52.704;13.814;2023-06-10T08:59:52;12.60;;;7.00;;
49241;SDS011;35079;52.704;13.814;2023-06-10T09:02:20;13.68;;;6.95;;
49241;SDS011;35079;52.704;13.814;2023-06-10T09:04:47;11.43;;;6.53;;
49241;SDS011;35079;52.704;13.814;2023-06-10T09:07:15;22.77;;;7.90;;
49241;SDS011;35079;52.704;13.814;2023-06-10T09:09:44;33.28;;;10.05;;
49241;SDS011;35079;52.704;13.814;2023-06-10T09:12:11;23.92;;;8.55;;
49241;SDS011;35079;52.704;13.814;2023-06-10T09:14:39;16.92;;;7.70;;
49241;SDS011;35079;52.704;13.814;2023-06-10T09:17:05;24.42;;;9.32;;
49241;SDS011;35079;52.704;13.814;2023-06-10T09:19:31;21.38;;;9.45;;
49241;SDS011;35079;52.704;13.814;2023-06-10T09:21:57;18.38;;;8.95;;
49241;SDS011;35079;52.704;13.814;2023-06-10T09:24:23;22.08;;;10.85;;
49241;SDS011;35079;52.704;13.814;2023-06-10T09:26:49;24.83;;;9.93;;
49241;SDS011;35079;52.704;13.814;2023-06-10T09:29:26;15.93;;;10.30;;
49241;SDS011;35079;52.704;13.814;2023-06-10T09:31:52;18.80;;;9.90;;
49241;SDS011;35079;52.704;13.814;2023-06-10T09:34:17;19.80;;;11.00;;
49241;SDS011;35079;52.704;13.814;2023-06-10T09:36:43;19.35;;;11.02;;
49241;SDS011;35079;52.704;13.814;2023-06-10T09:39:14;16.42;;;10.45;;
49241;SDS011;35079;52.704;13.814;2023-06-10T09:41:41;16.52;;;10.93;;
49241;SDS011;35079;52.704;13.814;2023-06-10T09:44:17;15.98;;;10.95;;
49241;SDS011;35079;52.704;13.814;2023-06-10T09:46:45;16.55;;;11.25;;
49241;SDS011;35079;52.704;13.814;2023-06-10T09:49:12;14.75;;;10.70;;
49241;SDS011;35079;52.704;13.814;2023-06-10T09:51:48;16.73;;;11.73;;
49241;SDS011;35079;52.704;13.814;2023-06-10T09:54:18;16.33;;;11.50;;
49241;SDS011;35079;52.704;13.814;2023-06-10T09:56:48;17.33;;;11.35;;
49241;SDS011;35079;52.704;13.814;2023-06-10T09:59:15;14.52;;;11.20;;
49241;SDS011;35079;52.704;13.814;2023-06-10T10:01:41;21.13;;;12.98;;
49241;SDS011;35079;52.704;13.814;2023-06-10T10:04:06;14.15;;;12.38;;
49241;SDS011;35079;52.704;13.814;2023-06-10T10:06:32;13.63;;;10.88;;
49241;SDS011;35079;52.704;13.814;2023-06-10T10:08:59;18.20;;;12.18;;
49241;SDS011;35079;52.704;13.814;2023-06-10T10:11:25;16.50;;;11.65;;
49241;SDS011;35079;52.704;13.814;2023-06-10T10:13:52;20.00;;;12.43;;
49241;SDS011;35079;52.704;13.814;2023-06-10T10:16:25;14.80;;;11.18;;
49241;SDS011;35079;52.704;13.814;2023-06-10T10:22:18;19.60;;;12.35;;
49241;SDS011;35079;52.704;13.814;2023-06-10T10:24:51;17.80;;;11.32;;
49241;SDS011;35079;52.704;13.814;2023-06-10T10:27:27;15.35;;;11.73;;
49241;SDS011;35079;52.704;13.814;2023-06-10T10:29:54;13.77;;;11.70;;
49241;SDS011;35079;52.704;13.814;2023-06-10T10:32:26;13.30;;;9.57;;
49241;SDS011;35079;52.704;13.814;2023-06-10T10:35:03;14.95;;;10.43;;
49241;SDS011;35079;52.704;13.814;2023-06-10T10:37:34;9.65;;;8.10;;
49241;SDS011;35079;52.704;13.814;2023-06-10T10:40:01;11.95;;;9.10;;
49241;SDS011;35079;52.704;13.814;2023-06-10T10:42:28;13.70;;;8.52;;
49241;SDS011;35079;52.704;13.814;2023-06-10T10:44:55;11.75;;;8.40;;
49241;SDS011;35079;52.704;13.814;2023-06-10T10:47:21;12.75;;;7.72;;
49241;SDS011;35079;52.704;13.814;2023-06-10T10:49:48;9.65;;;7.45;;
49241;SDS011;35079;52.704;13.814;2023-06-10T10:52:20;9.80;;;6.00;;
49241;SDS011;35079;52.704;13.814;2023-06-10T10:54:46;7.35;;;5.95;;
49241;SDS011;35079;52.704;13.814;2023-06-10T10:57:13;7.65;;;6.50;;
49241;SDS011;35079;52.704;13.814;2023-06-10T11:05:03;7.18;;;6.25;;
49241;SDS011;35079;52.704;13.814;2023-06-10T11:07:30;9.82;;;6.97;;
49241;SDS011;35079;52.704;13.814;2023-06-10T11:10:07;7.72;;;6.00;;
49241;SDS011;35079;52.704;13.814;2023-06-10T11:15:20;11.07;;;7.05;;
49241;SDS011;35079;52.704;13.814;2023-06-10T11:23:07;8.80;;;6.40;;
49241;SDS011;35079;52.704;13.814;2023-06-10T11:25:39;11.10;;;7.95;;
49241;SDS011;35079;52.704;13.814;2023-06-10T11:28:27;8.80;;;7.57;;
49241;SDS011;35079;52.704;13.814;2023-06-10T11:30:57;11.45;;;6.03;;
49241;SDS011;35079;52.704;13.814;2023-06-10T11:33:23;8.20;;;6.63;;
49241;SDS011;35079;52.704;13.814;2023-06-10T11:35:50;9.00;;;6.90;;
49241;SDS011;35079;52.704;13.814;2023-06-10T11:38:15;9.77;;;6.80;;
49241;SDS011;35079;52.704;13.814;2023-06-10T11:40:46;7.30;;;6.13;;
49241;SDS011;35079;52.704;13.814;2023-06-10T11:43:16;9.70;;;6.15;;
49241;SDS011;35079;52.704;13.814;2023-06-10T11:45:42;9.13;;;5.72;;
49241;SDS011;35079;52.704;13.814;2023-06-10T11:48:09;7.28;;;6.30;;
49241;SDS011;35079;52.704;13.814;2023-06-10T11:50:34;7.60;;;6.30;;
49241;SDS011;35079;52.704;13.814;2023-06-10T11:53:01;8.07;;;5.95;;
49241;SDS011;35079;52.704;13.814;2023-06-10T11:55:40;11.80;;;5.95;;
49241;SDS011;35079;52.704;13.814;2023-06-10T11:58:14;8.85;;;6.78;;
49241;SDS011;35079;52.704;13.814;2023-06-10T12:00:50;7.85;;;6.22;;
49241;SDS011;35079;52.704;13.814;2023-06-10T12:03:18;10.00;;;6.63;;
49241;SDS011;35079;52.704;13.814;2023-06-10T12:05:57;8.48;;;5.90;;
49241;SDS011;35079;52.704;13.814;2023-06-10T12:08:29;8.50;;;6.10;;
49241;SDS011;35079;52.704;13.814;2023-06-10T12:10:55;8.27;;;5.72;;
49241;SDS011;35079;52.704;13.814;2023-06-10T12:13:22;8.57;;;5.75;;
49241;SDS011;35079;52.704;13.814;2023-06-10T12:15:51;7.03;;;5.82;;
49241;SDS011;35079;52.704;13.814;2023-06-10T12:18:18;11.32;;;5.90;;
49241;SDS011;35079;52.704;13.814;2023-06-10T12:20:46;7.50;;;5.65;;
49241;SDS011;35079;52.704;13.814;2023-06-10T12:23:13;12.15;;;6.10;;
49241;SDS011;35079;52.704;13.814;2023-06-10T12:25:43;7.68;;;5.68;;
49241;SDS011;35079;52.704;13.814;2023-06-10T12:28:16;5.95;;;5.28;;
49241;SDS011;35079;52.704;13.814;2023-06-10T12:30:44;8.45;;;5.78;;
49241;SDS011;35079;52.704;13.814;2023-06-10T12:33:15;9.27;;;5.20;;
49241;SDS011;35079;52.704;13.814;2023-06-10T12:35:48;6.43;;;5.28;;
49241;SDS011;35079;52.704;13.814;2023-06-10T12:38:23;7.97;;;5.80;;
49241;SDS011;35079;52.704;13.814;2023-06-10T12:40:52;7.90;;;5.70;;
49241;SDS011;35079;52.704;13.814;2023-06-10T12:43:21;8.30;;;6.20;;
49241;SDS011;35079;52.704;13.814;2023-06-10T12:45:48;6.05;;;5.45;;
49241;SDS011;35079;52.704;13.814;2023-06-10T12:48:21;6.82;;;5.32;;
49241;SDS011;35079;52.704;13.814;2023-06-10T12:50:51;11.27;;;6.20;;
49241;SDS011;35079;52.704;13.814;2023-06-10T12:53:17;6.07;;;5.57;;
49241;SDS011;35079;52.704;13.814;2023-06-10T12:55:43;10.32;;;5.93;;
49241;SDS011;35079;52.704;13.814;2023-06-10T12:58:10;8.65;;;6.03;;
49241;SDS011;35079;52.704;13.814;2023-06-10T13:00:36;9.07;;;5.65;;
49241;SDS011;35079;52.704;13.814;2023-06-10T13:03:02;6.03;;;5.43;;
49241;SDS011;35079;52.704;13.814;2023-06-10T13:05:30;7.15;;;5.38;;
49241;SDS011;35079;52.704;13.814;2023-06-10T13:07:56;5.75;;;5.20;;
49241;SDS011;35079;52.704;13.814;2023-06-10T13:10:23;6.70;;;5.20;;
49241;SDS011;35079;52.704;13.814;2023-06-10T13:12:49;9.30;;;5.30;;
49241;SDS011;35079;52.704;13.814;2023-06-10T13:15:16;5.10;;;4.60;;
49241;SDS011;35079;52.704;13.814;2023-06-10T13:17:43;6.45;;;5.03;;
49241;SDS011;35079;52.704;13.814;2023-06-10T13:20:10;7.45;;;5.07;;
49241;SDS011;35079;52.704;13.814;2023-06-10T13:22:36;6.28;;;5.57;;
49241;SDS011;35079;52.704;13.814;2023-06-10T13:25:02;7.50;;;5.18;;
49241;SDS011;35079;52.704;13.814;2023-06-10T13:27:28;6.15;;;5.38;;
49241;SDS011;35079;52.704;13.814;2023-06-10T13:29:54;6.45;;;5.85;;
49241;SDS011;35079;52.704;13.814;2023-06-10T13:32:20;6.75;;;5.20;;
49241;SDS011;35079;52.704;13.814;2023-06-10T13:34:45;6.88;;;5.55;;
49241;SDS011;35079;52.704;13.814;2023-06-10T13:37:11;8.55;;;5.70;;
49241;SDS011;35079;52.704;13.814;2023-06-10T13:39:42;8.98;;;5.95;;
49241;SDS011;35079;52.704;13.814;2023-06-10T13:42:07;7.32;;;5.80;;
49241;SDS011;35079;52.704;13.814;2023-06-10T13:44:34;8.63;;;5.15;;
49241;SDS011;35079;52.704;13.814;2023-06-10T13:47:01;7.43;;;5.93;;
49241;SDS011;35079;52.704;13.814;2023-06-10T13:49:30;6.88;;;5.13;;
49241;SDS011;35079;52.704;13.814;2023-06-10T13:51:56;10.88;;;5.85;;
49241;SDS011;35079;52.704;13.814;2023-06-10T13:54:21;7.68;;;5.43;;
49241;SDS011;35079;52.704;13.814;2023-06-10T13:56:47;7.13;;;5.47;;
49241;SDS011;35079;52.704;13.814;2023-06-10T13:59:13;8.45;;;5.25;;
49241;SDS011;35079;52.704;13.814;2023-06-10T14:01:38;7.22;;;5.50;;
49241;SDS011;35079;52.704;13.814;2023-06-10T14:04:05;8.02;;;5.45;;
49241;SDS011;35079;52.704;13.814;2023-06-10T14:06:31;7.38;;;6.15;;
49241;SDS011;35079;52.704;13.814;2023-06-10T14:08:58;6.57;;;5.68;;
49241;SDS011;35079;52.704;13.814;2023-06-10T14:11:26;7.82;;;5.20;;
49241;SDS011;35079;52.704;13.814;2023-06-10T14:13:52;7.80;;;5.30;;
49241;SDS011;35079;52.704;13.814;2023-06-10T14:16:17;7.40;;;5.55;;
49241;SDS011;35079;52.704;13.814;2023-06-10T14:18:43;5.70;;;5.10;;
49241;SDS011;35079;52.704;13.814;2023-06-10T14:21:08;5.80;;;5.20;;
49241;SDS011;35079;52.704;13.814;2023-06-10T14:23:34;6.63;;;5.20;;
49241;SDS011;35079;52.704;13.814;2023-06-10T14:26:00;6.85;;;5.30;;
49241;SDS011;35079;52.704;13.814;2023-06-10T14:28:27;6.00;;;4.50;;
49241;SDS011;35079;52.704;13.814;2023-06-10T14:30:54;7.63;;;4.93;;
49241;SDS011;35079;52.704;13.814;2023-06-10T14:33:19;8.38;;;5.05;;
49241;SDS011;35079;52.704;13.814;2023-06-10T14:35:45;6.05;;;5.00;;
49241;SDS011;35079;52.704;13.814;2023-06-10T14:38:10;5.50;;;5.00;;
49241;SDS011;35079;52.704;13.814;2023-06-10T14:40:36;6.90;;;5.22;;
49241;SDS011;35079;52.704;13.814;2023-06-10T14:43:02;8.77;;;5.03;;
49241;SDS011;35079;52.704;13.814;2023-06-10T14:45:34;7.88;;;5.20;;
49241;SDS011;35079;52.704;13.814;2023-06-10T14:48:00;5.93;;;4.80;;
49241;SDS011;35079;52.704;13.814;2023-06-10T14:50:26;5.88;;;4.57;;